sensor_id;sensor_type;location;lat;lon;timestamp;P1;durP1;ratioP1;P2;durP2;ratioP2
35990;SDS011;22064;42.672;23.282;2023-07-31T00:02:23;8.20;;;4.50;;
35990;SDS011;22064;42.672;23.282;2023-07-31T00:04:49;8.30;;;4.40;;
35990;SDS011;22064;42.672;23.282;2023-07-31T00:07:15;6.25;;;4.10;;
35990;SDS011;22064;42.672;23.282;2023-07-31T00:09:41;5.25;;;3.95;;
35990;SDS011;22064;42.672;23.282;2023-07-31T00:12:07;7.18;;;4.32;;
35990;SDS011;22064;42.672;23.282;2023-07-31T00:14:33;5.78;;;3.75;;
35990;SDS011;22064;42.672;23.282;2023-07-31T00:16:59;5.90;;;3.80;;
35990;SDS011;22064;42.672;23.282;2023-07-31T00:19:25;6.60;;;4.28;;
35990;SDS011;22064;42.672;23.282;2023-07-31T00:21:51;7.97;;;4.60;;
35990;SDS011;22064;42.672;23.282;2023-07-31T00:24:17;7.93;;;4.80;;
35990;SDS011;22064;42.672;23.282;2023-07-31T00:26:43;10.35;;;5.25;;
35990;SDS011;22064;42.672;23.282;2023-07-31T00:29:09;9.10;;;5.90;;
35990;SDS011;22064;42.672;23.282;2023-07-31T00:31:36;9.55;;;5.45;;
35990;SDS011;22064;42.672;23.282;2023-07-31T00:34:02;8.52;;;5.53;;
35990;SDS011;22064;42.672;23.282;2023-07-31T00:36:28;9.63;;;5.80;;
35990;SDS011;22064;42.672;23.282;2023-07-31T00:38:54;10.48;;;6.30;;
35990;SDS011;22064;42.672;23.282;2023-07-31T00:41:20;9.82;;;6.22;;
35990;SDS011;22064;42.672;23.282;2023-07-31T00:43:46;9.27;;;6.15;;
35990;SDS011;22064;42.672;23.282;2023-07-31T00:46:12;11.90;;;7.28;;
35990;SDS011;22064;42.672;23.282;2023-07-31T00:48:38;11.05;;;6.65;;
35990;SDS011;22064;42.672;23.282;2023-07-31T00:51:04;12.63;;;7.10;;
35990;SDS011;22064;42.672;23.282;2023-07-31T00:53:31;9.50;;;6.63;;
35990;SDS011;22064;42.672;23.282;2023-07-31T00:55:57;12.57;;;7.97;;
35990;SDS011;22064;42.672;23.282;2023-07-31T00:58:24;12.68;;;8.27;;
35990;SDS011;22064;42.672;23.282;2023-07-31T01:00:51;14.07;;;8.50;;
35990;SDS011;22064;42.672;23.282;2023-07-31T01:03:18;15.63;;;9.43;;
35990;SDS011;22064;42.672;23.282;2023-07-31T01:08:44;15.95;;;10.15;;
35990;SDS011;22064;42.672;23.282;2023-07-31T01:11:27;16.63;;;10.77;;
35990;SDS011;22064;42.672;23.282;2023-07-31T01:13:55;19.30;;;10.43;;
35990;SDS011;22064;42.672;23.282;2023-07-31T01:16:22;17.65;;;11.07;;
35990;SDS011;22064;42.672;23.282;2023-07-31T01:18:48;17.95;;;10.90;;
35990;SDS011;22064;42.672;23.282;2023-07-31T01:21:33;19.65;;;12.80;;
35990;SDS011;22064;42.672;23.282;2023-07-31T01:26:41;20.67;;;13.27;;
35990;SDS011;22064;42.672;23.282;2023-07-31T01:31:56;26.77;;;16.65;;
35990;SDS011;22064;42.672;23.282;2023-07-31T01:34:28;25.98;;;17.25;;
35990;SDS011;22064;42.672;23.282;2023-07-31T01:36:55;28.40;;;18.58;;
35990;SDS011;22064;42.672;23.282;2023-07-31T01:39:22;28.20;;;18.50;;
35990;SDS011;22064;42.672;23.282;2023-07-31T01:41:48;30.10;;;21.13;;
35990;SDS011;22064;42.672;23.282;2023-07-31T01:44:14;30.15;;;20.88;;
35990;SDS011;22064;42.672;23.282;2023-07-31T01:46:40;32.13;;;22.02;;
35990;SDS011;22064;42.672;23.282;2023-07-31T01:49:06;32.03;;;20.90;;
35990;SDS011;22064;42.672;23.282;2023-07-31T01:51:32;32.30;;;22.02;;
35990;SDS011;22064;42.672;23.282;2023-07-31T01:54:01;32.67;;;22.05;;
35990;SDS011;22064;42.672;23.282;2023-07-31T01:56:27;33.83;;;22.77;;
35990;SDS011;22064;42.672;23.282;2023-07-31T01:58:54;34.42;;;23.13;;
35990;SDS011;22064;42.672;23.282;2023-07-31T02:01:19;35.58;;;23.60;;
35990;SDS011;22064;42.672;23.282;2023-07-31T02:03:45;33.13;;;22.33;;
35990;SDS011;22064;42.672;23.282;2023-07-31T02:06:11;33.22;;;23.65;;
35990;SDS011;22064;42.672;23.282;2023-07-31T02:08:37;34.55;;;24.83;;
35990;SDS011;22064;42.672;23.282;2023-07-31T02:11:03;32.42;;;22.88;;
35990;SDS011;22064;42.672;23.282;2023-07-31T02:13:30;33.45;;;24.17;;
35990;SDS011;22064;42.672;23.282;2023-07-31T02:15:56;36.22;;;23.98;;
35990;SDS011;22064;42.672;23.282;2023-07-31T02:18:25;33.88;;;23.20;;
35990;SDS011;22064;42.672;23.282;2023-07-31T02:20:51;34.17;;;23.25;;
35990;SDS011;22064;42.672;23.282;2023-07-31T02:23:18;34.10;;;21.52;;
35990;SDS011;22064;42.672;23.282;2023-07-31T02:25:45;31.27;;;21.67;;
35990;SDS011;22064;42.672;23.282;2023-07-31T02:28:11;32.00;;;21.30;;
35990;SDS011;22064;42.672;23.282;2023-07-31T02:30:37;30.30;;;21.67;;
35990;SDS011;22064;42.672;23.282;2023-07-31T02:33:03;33.38;;;22.52;;
35990;SDS011;22064;42.672;23.282;2023-07-31T02:35:30;31.55;;;21.02;;
35990;SDS011;22064;42.672;23.282;2023-07-31T02:37:56;32.72;;;21.92;;
35990;SDS011;22064;42.672;23.282;2023-07-31T02:40:22;30.50;;;21.10;;
35990;SDS011;22064;42.672;23.282;2023-07-31T02:42:49;34.55;;;22.10;;
35990;SDS011;22064;42.672;23.282;2023-07-31T02:45:15;32.03;;;20.88;;
35990;SDS011;22064;42.672;23.282;2023-07-31T02:47:40;29.70;;;20.90;;
35990;SDS011;22064;42.672;23.282;2023-07-31T02:50:06;28.92;;;19.98;;
35990;SDS011;22064;42.672;23.282;2023-07-31T02:52:33;30.17;;;20.85;;
35990;SDS011;22064;42.672;23.282;2023-07-31T02:54:58;31.23;;;20.98;;
35990;SDS011;22064;42.672;23.282;2023-07-31T02:57:24;31.85;;;20.70;;
35990;SDS011;22064;42.672;23.282;2023-07-31T02:59:50;33.05;;;21.98;;
35990;SDS011;22064;42.672;23.282;2023-07-31T03:02:17;30.33;;;21.30;;
35990;SDS011;22064;42.672;23.282;2023-07-31T03:04:43;31.30;;;21.30;;
35990;SDS011;22064;42.672;23.282;2023-07-31T03:07:09;31.38;;;21.65;;
35990;SDS011;22064;42.672;23.282;2023-07-31T03:09:35;31.77;;;21.58;;
35990;SDS011;22064;42.672;23.282;2023-07-31T03:12:01;30.55;;;20.95;;
35990;SDS011;22064;42.672;23.282;2023-07-31T03:14:27;32.55;;;22.83;;
35990;SDS011;22064;42.672;23.282;2023-07-31T03:16:53;33.85;;;21.35;;
35990;SDS011;22064;42.672;23.282;2023-07-31T03:19:19;30.35;;;20.13;;
35990;SDS011;22064;42.672;23.282;2023-07-31T03:21:45;30.05;;;21.38;;
35990;SDS011;22064;42.672;23.282;2023-07-31T03:24:11;34.25;;;21.58;;
35990;SDS011;22064;42.672;23.282;2023-07-31T03:26:40;30.40;;;21.03;;
35990;SDS011;22064;42.672;23.282;2023-07-31T03:29:07;31.85;;;21.58;;
35990;SDS011;22064;42.672;23.282;2023-07-31T03:31:34;32.95;;;21.20;;
35990;SDS011;22064;42.672;23.282;2023-07-31T03:34:00;32.22;;;21.90;;
35990;SDS011;22064;42.672;23.282;2023-07-31T03:36:26;32.35;;;21.00;;
35990;SDS011;22064;42.672;23.282;2023-07-31T03:38:53;32.08;;;21.67;;
35990;SDS011;22064;42.672;23.282;2023-07-31T03:41:18;32.38;;;21.45;;
35990;SDS011;22064;42.672;23.282;2023-07-31T03:43:49;32.22;;;20.92;;
35990;SDS011;22064;42.672;23.282;2023-07-31T03:46:22;34.05;;;21.52;;
35990;SDS011;22064;42.672;23.282;2023-07-31T03:48:49;35.20;;;21.90;;
35990;SDS011;22064;42.672;23.282;2023-07-31T03:51:15;35.47;;;22.17;;
35990;SDS011;22064;42.672;23.282;2023-07-31T03:53:42;32.15;;;21.52;;
35990;SDS011;22064;42.672;23.282;2023-07-31T03:56:08;33.75;;;21.48;;
35990;SDS011;22064;42.672;23.282;2023-07-31T03:58:34;34.00;;;22.45;;
35990;SDS011;22064;42.672;23.282;2023-07-31T04:01:01;34.90;;;22.27;;
35990;SDS011;22064;42.672;23.282;2023-07-31T04:03:27;36.58;;;22.42;;
35990;SDS011;22064;42.672;23.282;2023-07-31T04:05:54;34.85;;;21.45;;
35990;SDS011;22064;42.672;23.282;2023-07-31T04:08:22;36.30;;;22.63;;
35990;SDS011;22064;42.672;23.282;2023-07-31T04:10:48;37.38;;;22.60;;
35990;SDS011;22064;42.672;23.282;2023-07-31T04:13:15;34.08;;;22.08;;
35990;SDS011;22064;42.672;23.282;2023-07-31T04:15:41;35.72;;;22.17;;
35990;SDS011;22064;42.672;23.282;2023-07-31T04:18:07;36.15;;;23.17;;
35990;SDS011;22064;42.672;23.282;2023-07-31T04:20:33;34.65;;;21.90;;
35990;SDS011;22064;42.672;23.282;2023-07-31T04:23:00;37.53;;;22.75;;
35990;SDS011;22064;42.672;23.282;2023-07-31T04:25:25;34.78;;;22.10;;
35990;SDS011;22064;42.672;23.282;2023-07-31T04:27:51;34.88;;;21.83;;
35990;SDS011;22064;42.672;23.282;2023-07-31T04:30:17;34.92;;;21.15;;
35990;SDS011;22064;42.672;23.282;2023-07-31T04:32:43;33.92;;;21.67;;
35990;SDS011;22064;42.672;23.282;2023-07-31T04:35:10;32.03;;;21.08;;
35990;SDS011;22064;42.672;23.282;2023-07-31T04:37:36;34.85;;;22.20;;
35990;SDS011;22064;42.672;23.282;2023-07-31T04:40:02;32.00;;;20.92;;
35990;SDS011;22064;42.672;23.282;2023-07-31T04:42:28;35.72;;;21.52;;
35990;SDS011;22064;42.672;23.282;2023-07-31T04:44:54;30.42;;;20.85;;
35990;SDS011;22064;42.672;23.282;2023-07-31T04:47:20;33.03;;;20.90;;
35990;SDS011;22064;42.672;23.282;2023-07-31T04:49:45;32.30;;;20.50;;
35990;SDS011;22064;42.672;23.282;2023-07-31T04:52:11;31.80;;;20.02;;
35990;SDS011;22064;42.672;23.282;2023-07-31T04:54:38;32.30;;;20.55;;
35990;SDS011;22064;42.672;23.282;2023-07-31T04:57:04;32.25;;;19.50;;
35990;SDS011;22064;42.672;23.282;2023-07-31T04:59:30;30.33;;;20.00;;
35990;SDS011;22064;42.672;23.282;2023-07-31T05:01:57;30.75;;;19.25;;
35990;SDS011;22064;42.672;23.282;2023-07-31T05:04:23;28.83;;;19.80;;
35990;SDS011;22064;42.672;23.282;2023-07-31T05:06:49;30.52;;;20.25;;
35990;SDS011;22064;42.672;23.282;2023-07-31T05:09:15;26.58;;;18.00;;
35990;SDS011;22064;42.672;23.282;2023-07-31T05:11:41;30.60;;;18.60;;
35990;SDS011;22064;42.672;23.282;2023-07-31T05:14:08;29.48;;;19.10;;
35990;SDS011;22064;42.672;23.282;2023-07-31T05:16:34;29.00;;;19.35;;
35990;SDS011;22064;42.672;23.282;2023-07-31T05:19:00;27.23;;;18.15;;
35990;SDS011;22064;42.672;23.282;2023-07-31T05:21:26;28.88;;;18.30;;
35990;SDS011;22064;42.672;23.282;2023-07-31T05:23:52;25.50;;;17.63;;
35990;SDS011;22064;42.672;23.282;2023-07-31T05:26:18;26.10;;;16.63;;
35990;SDS011;22064;42.672;23.282;2023-07-31T05:28:44;24.73;;;15.48;;
35990;SDS011;22064;42.672;23.282;2023-07-31T05:31:10;22.05;;;14.40;;
35990;SDS011;22064;42.672;23.282;2023-07-31T05:33:36;25.83;;;15.98;;
35990;SDS011;22064;42.672;23.282;2023-07-31T05:36:02;22.98;;;13.90;;
35990;SDS011;22064;42.672;23.282;2023-07-31T05:38:28;20.35;;;12.95;;
35990;SDS011;22064;42.672;23.282;2023-07-31T05:40:55;21.08;;;12.55;;
35990;SDS011;22064;42.672;23.282;2023-07-31T05:43:21;18.33;;;12.27;;
35990;SDS011;22064;42.672;23.282;2023-07-31T05:45:47;17.38;;;11.18;;
35990;SDS011;22064;42.672;23.282;2023-07-31T05:48:13;16.52;;;9.80;;
35990;SDS011;22064;42.672;23.282;2023-07-31T05:50:39;17.27;;;9.90;;
35990;SDS011;22064;42.672;23.282;2023-07-31T05:53:05;17.42;;;9.50;;
35990;SDS011;22064;42.672;23.282;2023-07-31T05:55:32;14.20;;;9.10;;
35990;SDS011;22064;42.672;23.282;2023-07-31T05:57:58;13.88;;;8.57;;
35990;SDS011;22064;42.672;23.282;2023-07-31T06:00:24;13.70;;;8.30;;
35990;SDS011;22064;42.672;23.282;2023-07-31T06:02:50;12.48;;;7.68;;
35990;SDS011;22064;42.672;23.282;2023-07-31T06:05:16;12.85;;;7.05;;
35990;SDS011;22064;42.672;23.282;2023-07-31T06:07:43;11.35;;;6.82;;
35990;SDS011;22064;42.672;23.282;2023-07-31T06:10:09;13.32;;;6.90;;
35990;SDS011;22064;42.672;23.282;2023-07-31T06:12:35;9.35;;;6.28;;
35990;SDS011;22064;42.672;23.282;2023-07-31T06:15:02;8.65;;;5.88;;
35990;SDS011;22064;42.672;23.282;2023-07-31T06:17:29;9.98;;;5.85;;
35990;SDS011;22064;42.672;23.282;2023-07-31T06:19:56;8.65;;;5.50;;
35990;SDS011;22064;42.672;23.282;2023-07-31T06:22:22;9.10;;;5.45;;
35990;SDS011;22064;42.672;23.282;2023-07-31T06:24:48;8.38;;;5.40;;
35990;SDS011;22064;42.672;23.282;2023-07-31T06:27:15;8.48;;;5.38;;
35990;SDS011;22064;42.672;23.282;2023-07-31T06:29:41;8.68;;;5.30;;
35990;SDS011;22064;42.672;23.282;2023-07-31T06:32:07;8.85;;;5.60;;
35990;SDS011;22064;42.672;23.282;2023-07-31T06:34:33;8.95;;;5.35;;
35990;SDS011;22064;42.672;23.282;2023-07-31T06:36:59;9.50;;;5.38;;
35990;SDS011;22064;42.672;23.282;2023-07-31T06:39:25;9.93;;;5.50;;
35990;SDS011;22064;42.672;23.282;2023-07-31T06:41:51;11.25;;;5.93;;
35990;SDS011;22064;42.672;23.282;2023-07-31T06:44:17;10.13;;;5.50;;
35990;SDS011;22064;42.672;23.282;2023-07-31T06:46:43;9.07;;;5.15;;
35990;SDS011;22064;42.672;23.282;2023-07-31T06:49:09;9.73;;;5.40;;
35990;SDS011;22064;42.672;23.282;2023-07-31T06:51:35;8.00;;;5.03;;
35990;SDS011;22064;42.672;23.282;2023-07-31T06:54:01;7.40;;;5.28;;
35990;SDS011;22064;42.672;23.282;2023-07-31T06:56:28;9.30;;;4.93;;
35990;SDS011;22064;42.672;23.282;2023-07-31T06:58:54;7.55;;;4.30;;
35990;SDS011;22064;42.672;23.282;2023-07-31T07:01:21;7.28;;;4.40;;
35990;SDS011;22064;42.672;23.282;2023-07-31T07:03:47;6.55;;;4.60;;
35990;SDS011;22064;42.672;23.282;2023-07-31T07:06:16;5.78;;;4.40;;
35990;SDS011;22064;42.672;23.282;2023-07-31T07:08:45;11.77;;;4.10;;
35990;SDS011;22064;42.672;23.282;2023-07-31T07:11:11;8.20;;;4.45;;
35990;SDS011;22064;42.672;23.282;2023-07-31T07:13:37;5.22;;;4.20;;
35990;SDS011;22064;42.672;23.282;2023-07-31T07:16:03;5.70;;;3.88;;
35990;SDS011;22064;42.672;23.282;2023-07-31T07:18:29;6.57;;;4.05;;
35990;SDS011;22064;42.672;23.282;2023-07-31T07:20:55;5.45;;;3.63;;
35990;SDS011;22064;42.672;23.282;2023-07-31T07:23:23;7.35;;;4.05;;
35990;SDS011;22064;42.672;23.282;2023-07-31T07:25:49;5.15;;;3.70;;
35990;SDS011;22064;42.672;23.282;2023-07-31T07:28:17;4.70;;;3.55;;
35990;SDS011;22064;42.672;23.282;2023-07-31T07:30:43;7.78;;;3.92;;
35990;SDS011;22064;42.672;23.282;2023-07-31T07:33:09;5.60;;;3.67;;
35990;SDS011;22064;42.672;23.282;2023-07-31T07:35:35;4.43;;;3.50;;
35990;SDS011;22064;42.672;23.282;2023-07-31T07:38:02;5.88;;;3.55;;
35990;SDS011;22064;42.672;23.282;2023-07-31T07:40:29;5.25;;;3.58;;
35990;SDS011;22064;42.672;23.282;2023-07-31T07:42:55;4.30;;;3.30;;
35990;SDS011;22064;42.672;23.282;2023-07-31T07:45:21;5.25;;;3.65;;
35990;SDS011;22064;42.672;23.282;2023-07-31T07:47:47;4.28;;;3.47;;
35990;SDS011;22064;42.672;23.282;2023-07-31T07:50:13;4.45;;;3.45;;
35990;SDS011;22064;42.672;23.282;2023-07-31T07:52:39;4.45;;;3.40;;
35990;SDS011;22064;42.672;23.282;2023-07-31T07:55:05;5.55;;;3.50;;
35990;SDS011;22064;42.672;23.282;2023-07-31T07:57:31;5.57;;;3.10;;
35990;SDS011;22064;42.672;23.282;2023-07-31T07:59:57;5.10;;;3.22;;
35990;SDS011;22064;42.672;23.282;2023-07-31T08:02:23;6.05;;;3.88;;
35990;SDS011;22064;42.672;23.282;2023-07-31T08:04:49;7.70;;;3.50;;
35990;SDS011;22064;42.672;23.282;2023-07-31T08:07:15;5.57;;;3.70;;
35990;SDS011;22064;42.672;23.282;2023-07-31T08:09:41;4.55;;;3.35;;
35990;SDS011;22064;42.672;23.282;2023-07-31T08:12:07;5.82;;;3.95;;
35990;SDS011;22064;42.672;23.282;2023-07-31T08:14:33;6.50;;;3.47;;
35990;SDS011;22064;42.672;23.282;2023-07-31T08:16:59;3.90;;;3.30;;
35990;SDS011;22064;42.672;23.282;2023-07-31T08:19:25;4.70;;;3.53;;
35990;SDS011;22064;42.672;23.282;2023-07-31T08:21:52;4.03;;;3.20;;
35990;SDS011;22064;42.672;23.282;2023-07-31T08:24:17;5.88;;;4.00;;
35990;SDS011;22064;42.672;23.282;2023-07-31T08:26:43;4.85;;;3.50;;
35990;SDS011;22064;42.672;23.282;2023-07-31T08:29:09;4.05;;;3.20;;
35990;SDS011;22064;42.672;23.282;2023-07-31T08:31:36;4.55;;;2.95;;
35990;SDS011;22064;42.672;23.282;2023-07-31T08:34:02;5.18;;;3.55;;
35990;SDS011;22064;42.672;23.282;2023-07-31T08:36:28;6.28;;;3.65;;
35990;SDS011;22064;42.672;23.282;2023-07-31T08:38:54;5.53;;;3.08;;
35990;SDS011;22064;42.672;23.282;2023-07-31T08:41:20;6.25;;;4.20;;
35990;SDS011;22064;42.672;23.282;2023-07-31T08:43:46;5.63;;;3.30;;
35990;SDS011;22064;42.672;23.282;2023-07-31T08:46:13;6.22;;;3.58;;
35990;SDS011;22064;42.672;23.282;2023-07-31T08:48:41;5.85;;;3.97;;
35990;SDS011;22064;42.672;23.282;2023-07-31T08:51:08;5.70;;;3.35;;
35990;SDS011;22064;42.672;23.282;2023-07-31T08:53:35;5.18;;;3.60;;
35990;SDS011;22064;42.672;23.282;2023-07-31T08:56:01;5.20;;;3.00;;
35990;SDS011;22064;42.672;23.282;2023-07-31T08:58:31;4.97;;;3.60;;
35990;SDS011;22064;42.672;23.282;2023-07-31T09:01:01;4.03;;;3.20;;
35990;SDS011;22064;42.672;23.282;2023-07-31T09:03:29;6.45;;;3.38;;
35990;SDS011;22064;42.672;23.282;2023-07-31T09:05:59;5.78;;;3.15;;
35990;SDS011;22064;42.672;23.282;2023-07-31T09:08:26;4.63;;;4.10;;
35990;SDS011;22064;42.672;23.282;2023-07-31T09:11:01;5.45;;;3.20;;
35990;SDS011;22064;42.672;23.282;2023-07-31T09:13:32;8.48;;;3.53;;
35990;SDS011;22064;42.672;23.282;2023-07-31T09:15:59;5.40;;;3.30;;
35990;SDS011;22064;42.672;23.282;2023-07-31T09:18:25;7.70;;;3.40;;
35990;SDS011;22064;42.672;23.282;2023-07-31T09:21:03;6.95;;;3.60;;
35990;SDS011;22064;42.672;23.282;2023-07-31T09:23:40;4.57;;;3.35;;
35990;SDS011;22064;42.672;23.282;2023-07-31T09:26:08;5.95;;;3.38;;
35990;SDS011;22064;42.672;23.282;2023-07-31T09:28:34;3.92;;;3.50;;
35990;SDS011;22064;42.672;23.282;2023-07-31T09:31:00;6.47;;;3.20;;
35990;SDS011;22064;42.672;23.282;2023-07-31T09:33:26;4.75;;;3.25;;
35990;SDS011;22064;42.672;23.282;2023-07-31T09:35:52;5.75;;;3.78;;
35990;SDS011;22064;42.672;23.282;2023-07-31T09:38:18;4.30;;;3.25;;
35990;SDS011;22064;42.672;23.282;2023-07-31T09:40:45;5.53;;;3.40;;
35990;SDS011;22064;42.672;23.282;2023-07-31T09:43:13;6.03;;;3.65;;
35990;SDS011;22064;42.672;23.282;2023-07-31T09:45:43;5.78;;;3.33;;
35990;SDS011;22064;42.672;23.282;2023-07-31T09:48:11;5.90;;;4.00;;
35990;SDS011;22064;42.672;23.282;2023-07-31T09:50:38;5.07;;;3.45;;
35990;SDS011;22064;42.672;23.282;2023-07-31T09:53:06;4.80;;;3.65;;
35990;SDS011;22064;42.672;23.282;2023-07-31T09:55:34;4.03;;;3.20;;
35990;SDS011;22064;42.672;23.282;2023-07-31T09:58:05;4.13;;;2.92;;
35990;SDS011;22064;42.672;23.282;2023-07-31T10:00:33;4.68;;;3.58;;
35990;SDS011;22064;42.672;23.282;2023-07-31T10:03:00;4.18;;;3.30;;
35990;SDS011;22064;42.672;23.282;2023-07-31T10:05:38;4.32;;;2.83;;
35990;SDS011;22064;42.672;23.282;2023-07-31T10:08:13;3.72;;;2.78;;
35990;SDS011;22064;42.672;23.282;2023-07-31T10:10:44;5.63;;;2.90;;
35990;SDS011;22064;42.672;23.282;2023-07-31T10:13:11;10.02;;;3.25;;
35990;SDS011;22064;42.672;23.282;2023-07-31T10:15:38;4.43;;;2.95;;
35990;SDS011;22064;42.672;23.282;2023-07-31T10:18:06;3.03;;;2.72;;
35990;SDS011;22064;42.672;23.282;2023-07-31T10:20:32;4.18;;;2.70;;
35990;SDS011;22064;42.672;23.282;2023-07-31T10:22:59;3.35;;;2.78;;
35990;SDS011;22064;42.672;23.282;2023-07-31T10:25:26;5.43;;;2.80;;
35990;SDS011;22064;42.672;23.282;2023-07-31T10:27:53;3.67;;;2.78;;
35990;SDS011;22064;42.672;23.282;2023-07-31T10:30:24;4.75;;;2.75;;
35990;SDS011;22064;42.672;23.282;2023-07-31T10:32:54;2.92;;;2.63;;
35990;SDS011;22064;42.672;23.282;2023-07-31T10:35:21;7.95;;;3.00;;
35990;SDS011;22064;42.672;23.282;2023-07-31T10:37:48;2.88;;;2.60;;
35990;SDS011;22064;42.672;23.282;2023-07-31T10:40:23;5.38;;;2.88;;
35990;SDS011;22064;42.672;23.282;2023-07-31T10:42:51;5.25;;;2.80;;
35990;SDS011;22064;42.672;23.282;2023-07-31T10:45:25;2.90;;;2.60;;
35990;SDS011;22064;42.672;23.282;2023-07-31T10:48:00;3.17;;;2.70;;
35990;SDS011;22064;42.672;23.282;2023-07-31T10:50:28;2.75;;;2.47;;
35990;SDS011;22064;42.672;23.282;2023-07-31T10:52:55;2.80;;;2.60;;
35990;SDS011;22064;42.672;23.282;2023-07-31T10:58:14;3.25;;;2.53;;
35990;SDS011;22064;42.672;23.282;2023-07-31T11:00:45;3.80;;;2.80;;
35990;SDS011;22064;42.672;23.282;2023-07-31T11:03:12;4.53;;;2.78;;
35990;SDS011;22064;42.672;23.282;2023-07-31T11:13:48;3.38;;;2.15;;
35990;SDS011;22064;42.672;23.282;2023-07-31T11:16:19;4.22;;;2.90;;
35990;SDS011;22064;42.672;23.282;2023-07-31T11:18:47;2.30;;;2.10;;
35990;SDS011;22064;42.672;23.282;2023-07-31T11:21:15;4.53;;;2.53;;
35990;SDS011;22064;42.672;23.282;2023-07-31T11:23:47;2.13;;;1.80;;
35990;SDS011;22064;42.672;23.282;2023-07-31T11:26:13;4.95;;;2.50;;
35990;SDS011;22064;42.672;23.282;2023-07-31T11:28:40;4.07;;;2.95;;
35990;SDS011;22064;42.672;23.282;2023-07-31T11:31:11;4.30;;;2.40;;
35990;SDS011;22064;42.672;23.282;2023-07-31T11:33:37;3.63;;;2.53;;
35990;SDS011;22064;42.672;23.282;2023-07-31T11:36:03;3.97;;;2.80;;
35990;SDS011;22064;42.672;23.282;2023-07-31T11:38:31;6.72;;;3.47;;
35990;SDS011;22064;42.672;23.282;2023-07-31T11:41:01;4.35;;;3.17;;
35990;SDS011;22064;42.672;23.282;2023-07-31T11:43:28;5.75;;;3.30;;
35990;SDS011;22064;42.672;23.282;2023-07-31T11:45:56;4.38;;;3.17;;
35990;SDS011;22064;42.672;23.282;2023-07-31T11:48:26;5.40;;;3.10;;
35990;SDS011;22064;42.672;23.282;2023-07-31T11:50:58;3.40;;;3.10;;
35990;SDS011;22064;42.672;23.282;2023-07-31T11:53:45;6.38;;;3.33;;
35990;SDS011;22064;42.672;23.282;2023-07-31T11:56:19;3.40;;;3.10;;
35990;SDS011;22064;42.672;23.282;2023-07-31T11:58:47;5.95;;;3.60;;
35990;SDS011;22064;42.672;23.282;2023-07-31T12:01:17;5.85;;;3.60;;
35990;SDS011;22064;42.672;23.282;2023-07-31T12:03:45;4.60;;;3.80;;
35990;SDS011;22064;42.672;23.282;2023-07-31T12:06:12;5.90;;;4.00;;
35990;SDS011;22064;42.672;23.282;2023-07-31T12:08:38;6.85;;;4.28;;
35990;SDS011;22064;42.672;23.282;2023-07-31T12:11:04;7.32;;;4.40;;
35990;SDS011;22064;42.672;23.282;2023-07-31T12:13:32;7.07;;;4.65;;
35990;SDS011;22064;42.672;23.282;2023-07-31T12:15:59;6.28;;;4.60;;
35990;SDS011;22064;42.672;23.282;2023-07-31T12:18:27;9.65;;;6.25;;
35990;SDS011;22064;42.672;23.282;2023-07-31T12:20:59;10.07;;;6.88;;
35990;SDS011;22064;42.672;23.282;2023-07-31T12:23:27;9.40;;;6.30;;
35990;SDS011;22064;42.672;23.282;2023-07-31T12:28:43;8.63;;;5.93;;
35990;SDS011;22064;42.672;23.282;2023-07-31T12:31:13;8.68;;;5.88;;
35990;SDS011;22064;42.672;23.282;2023-07-31T12:33:42;7.22;;;4.78;;
35990;SDS011;22064;42.672;23.282;2023-07-31T12:36:10;7.63;;;5.53;;
35990;SDS011;22064;42.672;23.282;2023-07-31T12:38:38;7.63;;;5.15;;
35990;SDS011;22064;42.672;23.282;2023-07-31T12:41:04;7.20;;;4.85;;
35990;SDS011;22064;42.672;23.282;2023-07-31T12:43:36;6.47;;;4.70;;
35990;SDS011;22064;42.672;23.282;2023-07-31T12:46:03;10.27;;;5.40;;
35990;SDS011;22064;42.672;23.282;2023-07-31T12:48:30;8.57;;;5.60;;
35990;SDS011;22064;42.672;23.282;2023-07-31T12:50:56;8.70;;;5.57;;
35990;SDS011;22064;42.672;23.282;2023-07-31T12:53:22;10.30;;;5.75;;
35990;SDS011;22064;42.672;23.282;2023-07-31T12:55:48;8.00;;;5.75;;
35990;SDS011;22064;42.672;23.282;2023-07-31T12:58:14;8.65;;;5.40;;
35990;SDS011;22064;42.672;23.282;2023-07-31T13:00:40;8.02;;;5.63;;
35990;SDS011;22064;42.672;23.282;2023-07-31T13:03:06;7.88;;;5.75;;
35990;SDS011;22064;42.672;23.282;2023-07-31T13:05:32;7.28;;;5.78;;
35990;SDS011;22064;42.672;23.282;2023-07-31T13:07:58;8.20;;;5.75;;
35990;SDS011;22064;42.672;23.282;2023-07-31T13:10:24;9.68;;;5.90;;
35990;SDS011;22064;42.672;23.282;2023-07-31T13:12:52;9.52;;;5.70;;
35990;SDS011;22064;42.672;23.282;2023-07-31T13:15:18;10.85;;;5.65;;
35990;SDS011;22064;42.672;23.282;2023-07-31T13:17:45;9.18;;;6.18;;
35990;SDS011;22064;42.672;23.282;2023-07-31T13:20:11;8.38;;;5.80;;
35990;SDS011;22064;42.672;23.282;2023-07-31T13:22:38;9.15;;;5.90;;
35990;SDS011;22064;42.672;23.282;2023-07-31T13:25:04;9.68;;;5.85;;
35990;SDS011;22064;42.672;23.282;2023-07-31T13:27:31;8.30;;;5.32;;
35990;SDS011;22064;42.672;23.282;2023-07-31T13:29:57;7.68;;;5.13;;
35990;SDS011;22064;42.672;23.282;2023-07-31T13:32:23;7.28;;;5.30;;
35990;SDS011;22064;42.672;23.282;2023-07-31T13:34:50;8.13;;;5.15;;
35990;SDS011;22064;42.672;23.282;2023-07-31T13:37:17;5.50;;;4.68;;
35990;SDS011;22064;42.672;23.282;2023-07-31T13:39:43;9.88;;;5.15;;
35990;SDS011;22064;42.672;23.282;2023-07-31T13:42:09;7.88;;;4.75;;
35990;SDS011;22064;42.672;23.282;2023-07-31T13:44:38;8.02;;;5.00;;
35990;SDS011;22064;42.672;23.282;2023-07-31T13:47:05;12.30;;;5.30;;
35990;SDS011;22064;42.672;23.282;2023-07-31T13:49:31;8.73;;;5.15;;
35990;SDS011;22064;42.672;23.282;2023-07-31T13:51:58;6.45;;;4.45;;
35990;SDS011;22064;42.672;23.282;2023-07-31T13:54:24;6.13;;;4.65;;
35990;SDS011;22064;42.672;23.282;2023-07-31T13:56:51;5.68;;;4.68;;
35990;SDS011;22064;42.672;23.282;2023-07-31T13:59:18;7.05;;;4.82;;
35990;SDS011;22064;42.672;23.282;2023-07-31T14:01:44;7.15;;;4.60;;
35990;SDS011;22064;42.672;23.282;2023-07-31T14:04:11;6.28;;;4.82;;
35990;SDS011;22064;42.672;23.282;2023-07-31T14:06:37;9.15;;;4.90;;
35990;SDS011;22064;42.672;23.282;2023-07-31T14:09:03;7.32;;;4.43;;
35990;SDS011;22064;42.672;23.282;2023-07-31T14:11:30;6.50;;;4.18;;
35990;SDS011;22064;42.672;23.282;2023-07-31T14:13:57;9.02;;;5.00;;
35990;SDS011;22064;42.672;23.282;2023-07-31T14:16:23;5.25;;;4.43;;
35990;SDS011;22064;42.672;23.282;2023-07-31T14:18:50;11.05;;;4.50;;
35990;SDS011;22064;42.672;23.282;2023-07-31T14:21:16;9.20;;;4.53;;
35990;SDS011;22064;42.672;23.282;2023-07-31T14:23:42;6.63;;;4.75;;
35990;SDS011;22064;42.672;23.282;2023-07-31T14:26:08;6.55;;;4.30;;
35990;SDS011;22064;42.672;23.282;2023-07-31T14:28:34;5.60;;;4.43;;
35990;SDS011;22064;42.672;23.282;2023-07-31T14:31:00;5.40;;;4.30;;
35990;SDS011;22064;42.672;23.282;2023-07-31T14:33:26;6.75;;;4.00;;
35990;SDS011;22064;42.672;23.282;2023-07-31T14:35:52;4.63;;;3.90;;
35990;SDS011;22064;42.672;23.282;2023-07-31T14:38:18;5.93;;;4.20;;
35990;SDS011;22064;42.672;23.282;2023-07-31T14:40:44;5.95;;;4.30;;
35990;SDS011;22064;42.672;23.282;2023-07-31T14:43:10;7.63;;;4.63;;
35990;SDS011;22064;42.672;23.282;2023-07-31T14:45:36;5.35;;;4.20;;
35990;SDS011;22064;42.672;23.282;2023-07-31T14:48:02;7.22;;;4.20;;